Time;durP1;ratioP1;P1;durP2;ratioP2;P2;SDS_P1;SDS_P2;PMS_P1;PMS_P2;Temp;Humidity;BMP_temperature;BMP_pressure;BME280_temperature;BME280_humidity;BME280_pressure;Samples;Min_cycle;Max_cycle;Signal;HPM_P1;HPM_P2
2021/07/15 00:02:14;;;;;;;2.45;1.40;;;;;;;21.99;54.34;100969.09;4993382;28;20466;-63
2021/07/15 00:04:41;;;;;;;2.67;1.70;;;;;;;22.02;54.63;100974.09;4993209;28;20112;-63
2021/07/15 00:07:14;;;;;;;4.32;2.05;;;;;;;21.94;54.92;100975.88;4993363;28;20113;-63
2021/07/15 00:09:42;;;;;;;4.88;1.70;;;;;;;21.88;55.13;100972.00;4993146;28;20105;-63
2021/07/15 00:12:12;;;;;;;3.97;1.80;;;;;;;21.87;55.59;100965.00;4993255;28;20050;-63
2021/07/15 00:14:39;;;;;;;4.20;1.95;;;;;;;21.88;55.73;100955.13;4992795;28;20046;-63
2021/07/15 00:17:06;;;;;;;4.95;2.00;;;;;;;21.86;55.72;100965.97;4992897;28;20050;-63
2021/07/15 00:19:33;;;;;;;3.28;2.15;;;;;;;21.85;56.28;100958.94;4992954;28;20069;-63
2021/07/15 00:22:00;;;;;;;4.68;2.00;;;;;;;21.84;56.22;100957.31;4993245;28;20499;-63
2021/07/15 00:24:28;;;;;;;4.35;2.15;;;;;;;21.79;56.67;100965.78;4992984;28;20105;-63
2021/07/15 00:26:55;;;;;;;7.30;2.50;;;;;;;21.81;56.98;100965.59;4992860;28;20054;-63
2021/07/15 00:29:23;;;;;;;5.35;2.55;;;;;;;21.78;57.07;100965.94;4992854;28;20448;-63
2021/07/15 00:31:49;;;;;;;4.13;2.45;;;;;;;21.74;57.11;100962.72;4992836;28;20546;-63
2021/07/15 00:34:17;;;;;;;4.80;2.75;;;;;;;21.74;57.22;100944.03;4992910;28;20092;-63
2021/07/15 00:36:44;;;;;;;4.35;2.22;;;;;;;21.73;57.06;100941.53;4992690;28;20557;-63
2021/07/15 00:39:10;;;;;;;5.30;2.25;;;;;;;21.73;57.38;100945.00;4993015;28;20455;-63
2021/07/15 00:41:37;;;;;;;5.82;2.28;;;;;;;21.75;57.10;100939.50;4997982;28;20053;-63
2021/07/15 00:44:03;;;;;;;6.13;2.40;;;;;;;21.73;57.60;100933.50;4999384;28;20053;-63
2021/07/15 00:46:30;;;;;;;4.50;2.42;;;;;;;21.70;57.07;100942.66;4999251;28;20046;-63
2021/07/15 00:48:57;;;;;;;6.95;2.72;;;;;;;21.66;57.32;100935.94;4999238;28;20402;-64
2021/07/15 00:51:24;;;;;;;5.43;2.85;;;;;;;21.63;57.49;100939.75;4999158;28;20491;-63
2021/07/15 00:53:51;;;;;;;6.68;2.70;;;;;;;21.65;56.96;100942.28;4999200;28;20050;-63
2021/07/15 00:56:17;;;;;;;6.20;3.28;;;;;;;21.62;57.14;100940.78;4999312;28;20046;-63
2021/07/15 00:58:44;;;;;;;7.57;2.95;;;;;;;21.61;57.16;100932.91;4999269;28;20054;-63
2021/07/15 01:01:11;;;;;;;5.90;3.05;;;;;;;21.60;56.77;100939.22;4999114;28;20046;-63
2021/07/15 01:03:37;;;;;;;6.35;3.13;;;;;;;21.61;57.13;100949.78;4999187;28;20054;-63
2021/07/15 01:06:06;;;;;;;6.70;2.65;;;;;;;21.62;57.01;100943.44;4999158;28;20050;-63
2021/07/15 01:08:33;;;;;;;5.55;3.00;;;;;;;21.60;57.17;100945.41;4998964;28;20098;-63
2021/07/15 01:11:35;;;;;;;8.77;3.13;;;;;;;21.54;57.34;100941.47;4999054;28;20046;-63
2021/07/15 01:14:24;;;;;;;8.35;2.95;;;;;;;21.49;57.58;100949.13;4999092;28;20054;-63
2021/07/15 01:17:02;;;;;;;6.95;2.80;;;;;;;21.42;57.81;100948.09;4998757;28;20466;-63
2021/07/15 01:19:31;;;;;;;5.20;2.95;;;;;;;21.32;58.07;100944.66;4999142;28;20463;-63
2021/07/15 01:22:27;;;;;;;6.88;2.90;;;;;;;21.31;58.38;100940.31;4999089;28;20554;-63
2021/07/15 01:25:31;;;;;;;4.20;2.55;;;;;;;21.27;58.70;100934.41;4998924;28;20101;-63
2021/07/15 01:28:05;;;;;;;4.72;3.08;;;;;;;21.27;59.27;100942.44;4999339;28;20479;-64
2021/07/15 01:30:37;;;;;;;6.65;3.10;;;;;;;21.26;59.19;100934.59;4999132;28;20117;-63
2021/07/15 01:33:18;;;;;;;6.95;2.70;;;;;;;21.24;59.51;100932.03;4998827;28;20054;-63
2021/07/15 01:35:57;;;;;;;5.57;2.83;;;;;;;21.23;59.69;100927.72;4998709;28;20108;-63
2021/07/15 01:38:29;;;;;;;7.90;2.83;;;;;;;21.21;59.79;100941.19;4998831;28;20053;-63
2021/07/15 01:41:20;;;;;;;6.20;2.88;;;;;;;21.18;59.51;100930.84;4998680;28;20109;-63
2021/07/15 01:43:53;;;;;;;3.10;2.30;;;;;;;21.18;59.67;100927.34;4998693;28;20050;-63
2021/07/15 01:46:20;;;;;;;5.57;3.05;;;;;;;21.16;59.77;100921.31;4998780;28;20458;-63
2021/07/15 01:48:47;;;;;;;5.15;2.55;;;;;;;21.13;60.07;100921.63;4998698;28;20467;-63
2021/07/15 01:51:15;;;;;;;4.60;2.60;;;;;;;21.13;60.27;100925.13;4998491;28;20511;-64
2021/07/15 01:53:42;;;;;;;4.28;2.53;;;;;;;21.12;60.35;100926.09;4994729;28;20046;-63
2021/07/15 01:56:10;;;;;;;5.32;2.97;;;;;;;21.10;60.15;100916.56;4995677;28;20194;-63
2021/07/15 01:58:39;;;;;;;5.63;2.47;;;;;;;21.10;60.33;100927.25;4995559;28;20105;-63
2021/07/15 02:01:08;;;;;;;6.25;2.47;;;;;;;21.09;60.54;100918.41;4995865;28;20101;-64
2021/07/15 02:03:40;;;;;;;6.07;2.83;;;;;;;21.11;60.29;100924.41;4995412;28;20053;-63
2021/07/15 02:06:08;;;;;;;5.15;3.22;;;;;;;21.13;60.25;100925.13;4995603;28;20051;-63
2021/07/15 02:08:38;;;;;;;7.38;4.20;;;;;;;21.12;60.20;100922.59;4995366;28;20042;-63
2021/07/15 02:11:06;;;;;;;8.77;4.85;;;;;;;21.12;59.83;100923.44;4995405;28;20046;-63
2021/07/15 02:13:33;;;;;;;7.45;4.57;;;;;;;21.10;59.59;100921.91;4995152;28;20138;-63
2021/07/15 02:16:01;;;;;;;10.95;3.67;;;;;;;21.14;59.46;100921.47;4995167;28;20058;-63
2021/07/15 02:18:28;;;;;;;6.93;3.15;;;;;;;21.09;59.08;100926.41;4995231;28;20051;-63
2021/07/15 02:20:55;;;;;;;8.68;3.70;;;;;;;21.11;58.79;100929.75;4995151;28;20483;-63
2021/07/15 02:23:23;;;;;;;7.93;3.55;;;;;;;21.10;58.81;100928.06;4995178;28;20511;-63
2021/07/15 02:25:52;;;;;;;5.32;3.88;;;;;;;21.08;59.13;100927.41;4995035;28;20050;-63
2021/07/15 02:28:24;;;;;;;5.97;3.60;;;;;;;21.06;58.90;100925.88;4995019;28;20472;-63
2021/07/15 02:31:05;;;;;;;7.40;3.80;;;;;;;20.90;59.40;100929.19;4994880;28;20054;-63
2021/07/15 02:33:36;;;;;;;7.55;4.10;;;;;;;20.95;59.66;100924.25;4995039;28;20046;-63
2021/07/15 02:36:03;;;;;;;9.38;3.40;;;;;;;20.94;59.55;100928.75;4994862;28;20054;-63
2021/07/15 02:38:33;;;;;;;7.25;3.63;;;;;;;20.96;59.68;100936.59;4995091;28;20105;-63
2021/07/15 02:41:00;;;;;;;7.70;3.80;;;;;;;20.95;59.57;100932.25;4994864;28;20042;-63
2021/07/15 02:43:26;;;;;;;8.55;4.80;;;;;;;20.92;59.34;100936.06;4994797;28;20057;-63
2021/07/15 02:45:53;;;;;;;7.82;3.85;;;;;;;20.92;59.60;100933.38;4994684;28;20129;-63
2021/07/15 02:48:27;;;;;;;7.13;3.90;;;;;;;20.90;59.73;100927.38;4994758;28;20116;-63
2021/07/15 02:50:53;;;;;;;7.55;3.45;;;;;;;20.93;59.96;100929.75;4994534;28;20128;-63
2021/07/15 02:53:29;;;;;;;10.35;3.70;;;;;;;20.91;60.11;100931.72;4994532;28;20050;-63
2021/07/15 02:56:18;;;;;;;7.43;3.35;;;;;;;20.91;60.04;100925.53;4994282;28;20097;-63
2021/07/15 02:59:08;;;;;;;4.22;3.20;;;;;;;20.92;60.17;100928.06;4994397;28;20042;-63
2021/07/15 03:02:10;;;;;;;8.15;3.00;;;;;;;20.84;60.33;100933.31;4993275;28;20109;-63
2021/07/15 03:05:10;;;;;;;6.68;3.60;;;;;;;20.80;60.36;100935.44;4968756;28;20439;-63
2021/07/15 03:07:45;;;;;;;7.40;3.47;;;;;;;20.80;60.62;100939.94;4971091;28;20042;-63
2021/07/15 03:10:15;;;;;;;5.22;2.90;;;;;;;20.79;60.71;100939.09;4971660;28;20047;-64
2021/07/15 03:12:43;;;;;;;7.80;3.00;;;;;;;20.79;60.39;100946.25;4971423;28;20256;-64
2021/07/15 03:15:11;;;;;;;8.45;3.47;;;;;;;20.79;60.45;100951.59;4971358;28;20507;-63
2021/07/15 03:17:42;;;;;;;7.97;3.70;;;;;;;20.77;60.64;100950.91;4971353;28;20141;-64
2021/07/15 03:20:18;;;;;;;8.38;3.28;;;;;;;20.75;60.33;100950.19;4971601;28;20047;-64
2021/07/15 03:22:49;;;;;;;8.20;2.65;;;;;;;20.77;60.86;100950.91;4971130;28;20082;-63
2021/07/15 03:25:17;;;;;;;7.03;2.88;;;;;;;20.78;60.44;100948.06;4971004;28;20121;-63
2021/07/15 03:27:47;;;;;;;4.88;2.70;;;;;;;20.82;60.40;100943.28;4971015;28;20054;-63
2021/07/15 03:30:14;;;;;;;5.68;2.85;;;;;;;20.78;60.31;100941.91;4971206;28;20050;-63
2021/07/15 03:32:44;;;;;;;6.32;2.80;;;;;;;20.74;60.29;100945.88;4970940;28;20488;-63
2021/07/15 03:35:14;;;;;;;8.95;3.17;;;;;;;20.68;60.66;100939.25;4971065;28;20050;-63
2021/07/15 03:37:43;;;;;;;9.90;4.20;;;;;;;20.70;60.87;100939.97;4970903;28;20050;-63
2021/07/15 03:40:13;;;;;;;6.85;3.15;;;;;;;20.67;61.26;100930.44;4970961;28;20416;-63
2021/07/15 03:42:41;;;;;;;6.68;2.85;;;;;;;20.70;61.12;100946.16;4970988;28;20047;-64
2021/07/15 03:45:08;;;;;;;7.95;3.40;;;;;;;20.66;61.19;100930.59;4970889;28;20042;-63
2021/07/15 03:47:39;;;;;;;5.13;2.78;;;;;;;20.64;61.68;100933.38;4970663;28;20065;-63
2021/07/15 03:50:07;;;;;;;5.80;3.20;;;;;;;20.64;61.59;100937.88;4970739;28;20467;-63
2021/07/15 03:52:35;;;;;;;5.50;3.00;;;;;;;20.66;61.78;100941.25;4970559;28;20061;-63
2021/07/15 03:55:02;;;;;;;5.85;2.92;;;;;;;20.65;61.77;100943.06;4970549;28;20047;-63
2021/07/15 03:57:29;;;;;;;6.45;2.63;;;;;;;20.64;62.00;100943.22;4970653;28;20054;-63
2021/07/15 04:00:00;;;;;;;5.78;2.90;;;;;;;20.62;62.15;100943.38;4970358;28;20499;-63
2021/07/15 04:02:29;;;;;;;5.57;2.50;;;;;;;20.63;62.01;100946.88;4970563;28;20054;-63
2021/07/15 04:04:57;;;;;;;7.57;2.97;;;;;;;20.62;62.16;100950.50;4970252;28;20043;-63
2021/07/15 04:07:27;;;;;;;5.57;2.90;;;;;;;20.62;62.10;100953.19;4970314;28;20057;-63
2021/07/15 04:09:57;;;;;;;8.00;3.03;;;;;;;20.61;62.11;100946.16;4970117;28;20047;-63
2021/07/15 04:12:26;;;;;;;9.35;3.20;;;;;;;20.61;62.59;100956.81;4970173;28;20052;-63
2021/07/15 04:15:02;;;;;;;11.20;3.15;;;;;;;20.61;62.11;100960.34;4969377;28;20085;-63
2021/07/15 04:17:47;;;;;;;8.75;2.90;;;;;;;20.62;62.42;100955.84;4970138;28;20042;-63
2021/07/15 04:20:14;;;;;;;8.48;3.15;;;;;;;20.66;62.13;100946.59;4970147;28;20389;-63
2021/07/15 04:22:44;;;;;;;8.65;2.45;;;;;;;20.67;62.40;100948.25;4970119;28;20043;-63
2021/07/15 04:25:14;;;;;;;5.32;2.78;;;;;;;20.73;62.20;100950.34;4970178;28;20117;-64
2021/07/15 04:27:43;;;;;;;4.93;2.70;;;;;;;20.75;62.08;100953.72;4970105;28;20046;-63
2021/07/15 04:30:11;;;;;;;10.60;2.80;;;;;;;20.79;62.05;100959.59;4970040;28;20050;-63
2021/07/15 04:32:42;;;;;;;5.95;2.95;;;;;;;20.83;61.71;100955.63;4970157;28;20114;-63
2021/07/15 04:35:12;;;;;;;6.45;2.72;;;;;;;20.88;61.89;100966.69;4970015;28;20495;-63
2021/07/15 04:37:43;;;;;;;8.30;2.78;;;;;;;20.93;61.82;100961.75;4969922;28;20059;-64
2021/07/15 04:40:16;;;;;;;4.97;2.65;;;;;;;20.95;61.41;100954.44;4970183;28;20062;-63
2021/07/15 04:42:44;;;;;;;6.80;2.90;;;;;;;21.01;61.02;100959.19;4969960;28;20043;-63
2021/07/15 04:45:12;;;;;;;6.28;1.90;;;;;;;21.07;60.83;100967.59;4970046;28;20074;-63
2021/07/15 04:47:41;;;;;;;5.10;2.10;;;;;;;21.11;60.47;100969.78;4969984;28;20050;-63
2021/07/15 04:50:17;;;;;;;4.07;1.65;;;;;;;21.18;60.34;100970.03;4969994;28;20051;-63
2021/07/15 04:52:47;;;;;;;6.28;2.42;;;;;;;21.29;59.81;100972.50;4969804;28;20114;-63
2021/07/15 04:55:15;;;;;;;4.32;1.80;;;;;;;21.39;58.94;100971.56;4970041;28;20409;-63
2021/07/15 04:57:43;;;;;;;5.68;2.00;;;;;;;21.43;58.40;100962.25;4969916;28;20479;-63
2021/07/15 05:00:16;;;;;;;6.75;1.92;;;;;;;21.49;58.32;100961.66;4969947;28;20054;-63
2021/07/15 05:02:43;;;;;;;5.65;2.08;;;;;;;21.52;58.34;100958.66;4969771;28;20097;-63
2021/07/15 05:05:13;;;;;;;6.53;2.20;;;;;;;21.54;58.27;100954.84;4969903;28;20566;-63
2021/07/15 05:07:40;;;;;;;7.85;1.92;;;;;;;21.57;58.47;100959.06;4969754;28;20109;-63
2021/07/15 05:10:11;;;;;;;4.70;1.90;;;;;;;21.58;57.98;100951.91;4969923;28;20061;-63
2021/07/15 05:12:38;;;;;;;6.70;1.67;;;;;;;21.62;57.79;100964.81;4969704;28;20042;-63
2021/07/15 05:15:08;;;;;;;5.72;1.90;;;;;;;21.66;57.77;100966.16;4969318;28;20066;-63
2021/07/15 05:17:35;;;;;;;5.60;1.70;;;;;;;21.71;57.43;100956.84;4969368;28;20055;-63
2021/07/15 05:20:09;;;;;;;3.33;1.40;;;;;;;21.73;57.05;100961.03;4969376;28;20054;-63
2021/07/15 05:22:37;;;;;;;2.22;1.17;;;;;;;21.76;56.97;100965.22;4969573;28;20101;-63
2021/07/15 05:25:09;;;;;;;3.78;1.58;;;;;;;21.77;56.69;100974.94;4969869;28;20046;-63
2021/07/15 05:27:35;;;;;;;4.90;2.25;;;;;;;21.78;56.63;100972.09;4972268;28;20105;-63
2021/07/15 05:30:05;;;;;;;6.55;1.48;;;;;;;21.79;56.05;100972.97;4973394;28;20066;-63
2021/07/15 05:32:32;;;;;;;3.92;1.50;;;;;;;21.80;55.99;100983.47;4973338;28;20055;-63
2021/07/15 05:34:59;;;;;;;2.92;1.30;;;;;;;21.80;56.32;100983.47;4972998;28;20063;-63
2021/07/15 05:37:25;;;;;;;3.53;1.30;;;;;;;21.78;55.83;100985.47;4972978;28;20050;-64
2021/07/15 05:39:52;;;;;;;4.03;1.50;;;;;;;21.78;55.96;100977.44;4973053;28;20480;-63
2021/07/15 05:42:19;;;;;;;4.55;1.40;;;;;;;21.81;55.59;100990.50;4972947;28;20444;-63
2021/07/15 05:44:45;;;;;;;3.63;1.42;;;;;;;21.84;55.58;100992.03;4972729;28;20043;-63
2021/07/15 05:47:13;;;;;;;4.72;1.83;;;;;;;21.85;55.63;100986.53;4973106;28;21010;-63
2021/07/15 05:49:40;;;;;;;3.85;1.63;;;;;;;21.86;55.94;100990.03;4973043;28;20054;-63
2021/07/15 05:52:08;;;;;;;4.05;1.60;;;;;;;21.86;55.76;100984.69;4972936;28;20047;-63
2021/07/15 05:54:35;;;;;;;6.82;1.50;;;;;;;21.85;55.99;100991.88;4972666;28;20050;-63
2021/07/15 05:57:02;;;;;;;2.92;1.58;;;;;;;21.87;55.92;100993.56;4972614;28;20101;-63
2021/07/15 05:59:28;;;;;;;3.67;1.50;;;;;;;21.90;56.06;100996.72;4972859;28;20097;-63
2021/07/15 06:01:55;;;;;;;3.80;1.85;;;;;;;21.93;56.07;100996.44;4972384;28;20492;-63
2021/07/15 06:04:22;;;;;;;6.03;1.73;;;;;;;21.98;56.18;100999.47;4972553;28;20420;-63
2021/07/15 06:06:49;;;;;;;7.03;1.90;;;;;;;22.02;56.08;100987.47;4972761;28;20055;-63
2021/07/15 06:09:16;;;;;;;5.40;2.20;;;;;;;22.08;55.69;101001.19;4972523;28;20496;-63
2021/07/15 06:11:45;;;;;;;5.80;1.90;;;;;;;22.08;55.74;100991.38;4972170;28;20047;-63
2021/07/15 06:14:12;;;;;;;7.90;1.80;;;;;;;22.11;56.20;100992.88;4972560;28;20054;-64
2021/07/15 06:16:39;;;;;;;5.57;1.98;;;;;;;22.13;56.03;100994.41;4972259;28;20105;-63
2021/07/15 06:19:05;;;;;;;6.03;2.03;;;;;;;22.15;55.77;100981.72;4972205;28;20093;-63
2021/07/15 06:21:32;;;;;;;4.15;1.77;;;;;;;22.18;55.81;100975.22;4972265;28;20051;-63
2021/07/15 06:23:59;;;;;;;3.30;1.60;;;;;;;22.22;55.61;100973.91;4972135;28;20051;-63
2021/07/15 06:26:25;;;;;;;4.18;1.70;;;;;;;22.22;55.52;100965.91;4972140;28;20544;-63
2021/07/15 06:28:52;;;;;;;4.70;2.28;;;;;;;22.27;55.18;100970.75;4972171;28;20491;-63
2021/07/15 06:31:18;;;;;;;6.28;1.88;;;;;;;22.30;55.43;100979.31;4972441;28;20463;-63
2021/07/15 06:33:45;;;;;;;3.13;1.50;;;;;;;22.33;55.18;100989.69;4972119;28;20047;-64
2021/07/15 06:36:13;;;;;;;9.38;1.65;;;;;;;22.35;55.08;100989.53;4971959;28;20078;-63
2021/07/15 06:38:42;;;;;;;5.50;2.08;;;;;;;22.45;54.40;101000.97;4971084;28;20466;-63
2021/07/15 06:41:10;;;;;;;5.00;2.03;;;;;;;22.50;54.60;101004.00;4972051;28;20531;-63
2021/07/15 06:43:39;;;;;;;4.50;2.00;;;;;;;22.52;54.82;100998.50;4971760;28;20098;-64
2021/07/15 06:46:06;;;;;;;7.45;2.13;;;;;;;22.58;54.72;101008.56;4971811;28;20388;-63
2021/07/15 06:48:34;;;;;;;7.80;2.42;;;;;;;22.55;55.21;101000.00;4971890;28;20055;-63
2021/07/15 06:51:02;;;;;;;4.07;2.22;;;;;;;22.57;55.10;100998.84;4971684;28;20054;-63
2021/07/15 06:53:29;;;;;;;7.70;2.97;;;;;;;22.57;55.30;101006.06;4971563;28;20624;-63
2021/07/15 06:55:58;;;;;;;4.60;2.53;;;;;;;22.56;55.71;101007.88;4971510;28;20058;-63
2021/07/15 06:58:25;;;;;;;23.02;19.02;;;;;;;22.52;55.91;101022.56;4971533;28;20054;-63
2021/07/15 07:00:55;;;;;;;14.27;9.70;;;;;;;22.42;56.00;101020.00;4971469;28;20043;-63
2021/07/15 07:03:23;;;;;;;5.63;4.20;;;;;;;22.40;56.57;101014.00;4971660;28;20051;-64
2021/07/15 07:05:53;;;;;;;10.27;5.80;;;;;;;22.42;56.74;101011.97;4971206;28;20043;-63
2021/07/15 07:08:20;;;;;;;5.80;4.10;;;;;;;22.32;57.64;101014.75;4971310;28;20503;-63
2021/07/15 07:10:46;;;;;;;7.43;4.13;;;;;;;22.28;57.73;101010.72;4971369;28;20047;-63
2021/07/15 07:13:13;;;;;;;7.45;4.75;;;;;;;22.29;58.04;101015.03;4971345;28;20459;-63
2021/07/15 07:15:40;;;;;;;5.18;4.47;;;;;;;22.25;58.59;101013.69;4971061;28;20066;-63
2021/07/15 07:18:06;;;;;;;8.30;4.13;;;;;;;22.29;59.00;101012.38;4971151;28;20106;-63
2021/07/15 07:20:33;;;;;;;5.75;4.32;;;;;;;22.35;59.24;101019.75;4971196;28;20942;-64
2021/07/15 07:23:00;;;;;;;6.40;4.30;;;;;;;22.39;59.66;101023.00;4971114;28;20102;-64
2021/07/15 07:25:27;;;;;;;5.40;3.90;;;;;;;22.44;59.65;101025.22;4971107;28;20054;-63
2021/07/15 07:27:53;;;;;;;7.10;4.35;;;;;;;22.47;59.84;101015.03;4970851;28;20467;-63
2021/07/15 07:30:20;;;;;;;6.95;4.32;;;;;;;22.51;59.54;101023.56;4970918;28;20539;-64
2021/07/15 07:32:47;;;;;;;6.43;4.43;;;;;;;22.54;59.24;101027.75;4971015;28;20051;-64
2021/07/15 07:35:15;;;;;;;7.65;4.10;;;;;;;22.55;59.20;101037.47;4970899;28;20043;-63
2021/07/15 07:37:43;;;;;;;5.85;4.20;;;;;;;22.50;58.93;101029.94;4970503;28;20500;-63
2021/07/15 07:40:11;;;;;;;5.47;3.95;;;;;;;22.49;59.01;101031.75;4971147;28;20054;-63
2021/07/15 07:42:40;;;;;;;9.30;4.80;;;;;;;22.51;58.88;101036.94;4970837;28;20050;-63
2021/07/15 07:45:08;;;;;;;8.82;4.85;;;;;;;22.56;58.99;101037.28;4970917;28;20055;-63
2021/07/15 07:47:35;;;;;;;7.95;5.05;;;;;;;22.68;58.44;101024.50;4971034;28;20486;-64
2021/07/15 07:50:05;;;;;;;11.48;4.93;;;;;;;22.80;57.81;101025.91;4969774;28;20381;-63
2021/07/15 07:52:31;;;;;;;11.88;6.60;;;;;;;23.03;57.29;101024.47;4970714;28;20055;-64
2021/07/15 07:54:58;;;;;;;11.38;5.70;;;;;;;23.46;56.16;101023.47;4970319;28;20495;-64
2021/07/15 07:57:25;;;;;;;8.32;5.65;;;;;;;23.42;55.98;101019.41;4970511;28;20105;-63
2021/07/15 07:59:53;;;;;;;7.93;4.63;;;;;;;23.70;55.02;101031.69;4970687;28;20050;-63
2021/07/15 08:02:20;;;;;;;6.68;4.47;;;;;;;23.87;54.54;101032.50;4970200;28;20559;-63
2021/07/15 08:04:47;;;;;;;9.60;4.43;;;;;;;23.92;53.81;101028.38;4970298;28;20121;-64
2021/07/15 08:07:15;;;;;;;7.05;4.85;;;;;;;23.81;54.21;101026.00;4970790;28;20046;-63
2021/07/15 08:09:45;;;;;;;6.88;4.65;;;;;;;23.87;54.00;101021.78;4970404;28;20049;-63
2021/07/15 08:12:15;;;;;;;6.68;3.55;;;;;;;23.98;53.31;101028.69;4970241;28;20086;-63
2021/07/15 08:14:44;;;;;;;4.22;2.40;;;;;;;24.24;52.01;101023.97;4970061;28;20451;-63
2021/07/15 08:17:11;;;;;;;5.35;2.38;;;;;;;24.34;51.51;101022.94;4970379;28;20419;-63
2021/07/15 08:19:38;;;;;;;7.28;2.63;;;;;;;24.26;51.31;101011.25;4970062;28;20133;-63
2021/07/15 08:22:05;;;;;;;3.78;1.70;;;;;;;24.17;51.18;101019.47;4970282;28;20055;-63
2021/07/15 08:24:32;;;;;;;5.32;1.67;;;;;;;23.99;51.12;101031.22;4970418;28;20455;-63
2021/07/15 08:26:59;;;;;;;3.78;1.20;;;;;;;23.91;50.56;101024.00;4970085;28;20550;-63
2021/07/15 08:29:26;;;;;;;3.45;1.40;;;;;;;24.25;49.42;101030.16;4969995;28;20108;-63
2021/07/15 08:31:53;;;;;;;3.92;1.20;;;;;;;24.80;47.99;101038.44;4969845;28;20504;-63
2021/07/15 08:34:20;;;;;;;4.90;1.30;;;;;;;24.78;47.33;101035.94;4970024;28;20129;-64
2021/07/15 08:36:47;;;;;;;4.03;1.60;;;;;;;25.06;46.36;101024.75;4970146;28;20050;-63
2021/07/15 08:39:13;;;;;;;4.38;1.95;;;;;;;25.00;46.56;101020.91;4970061;28;20476;-64
2021/07/15 08:41:40;;;;;;;4.50;1.90;;;;;;;24.84;47.38;101026.38;4969881;28;20054;-64
2021/07/15 08:44:07;;;;;;;2.97;1.77;;;;;;;25.09;47.02;101022.53;4969829;28;20097;-63
2021/07/15 08:46:35;;;;;;;6.07;1.75;;;;;;;25.34;46.27;101021.56;4969877;28;20459;-64
2021/07/15 08:49:03;;;;;;;5.65;2.15;;;;;;;25.45;46.57;101026.56;4969751;28;20047;-63
2021/07/15 08:51:37;;;;;;;4.30;2.30;;;;;;;25.59;46.27;101020.41;4969562;28;20046;-63
2021/07/15 08:54:05;;;;;;;5.47;2.10;;;;;;;25.94;45.76;101008.38;4969666;28;20562;-64
2021/07/15 08:56:38;;;;;;;6.72;2.13;;;;;;;25.78;46.18;101020.13;4969580;28;20047;-63
2021/07/15 08:59:07;;;;;;;7.45;2.40;;;;;;;26.05;45.44;101022.22;4969352;28;20059;-63
2021/07/15 09:01:35;;;;;;;6.70;2.40;;;;;;;26.11;45.22;101017.16;4970285;28;20098;-64
2021/07/15 09:04:03;;;;;;;4.93;2.40;;;;;;;26.69;43.63;101022.72;4973569;28;20083;-63
2021/07/15 09:06:30;;;;;;;2.45;1.77;;;;;;;26.58;43.81;101020.53;4974066;28;20075;-63
2021/07/15 09:08:56;;;;;;;5.22;1.80;;;;;;;26.30;44.56;101026.56;4973480;28;20077;-64
2021/07/15 09:11:23;;;;;;;5.25;1.52;;;;;;;26.21;44.80;101025.81;4973246;28;20047;-63
2021/07/15 09:13:50;;;;;;;7.15;2.08;;;;;;;26.13;44.91;101023.19;4973211;28;20050;-63
2021/07/15 09:16:18;;;;;;;4.15;2.05;;;;;;;26.02;45.40;101022.56;4973370;28;20177;-63
2021/07/15 09:19:05;;;;;;;5.25;1.73;;;;;;;26.09;45.10;101022.69;4973386;28;20105;-63
2021/07/15 09:21:35;;;;;;;11.80;2.65;;;;;;;26.04;45.36;101033.13;4973494;28;20126;-64
2021/07/15 09:24:23;;;;;;;2.90;1.48;;;;;;;25.97;45.22;101033.03;4973430;28;20522;-64
2021/07/15 09:26:50;;;;;;;2.92;1.55;;;;;;;26.00;44.90;101031.84;4973316;28;20101;-63
2021/07/15 09:29:18;;;;;;;5.47;1.63;;;;;;;26.10;44.85;101027.06;4973129;28;20055;-63
2021/07/15 09:31:56;;;;;;;6.28;1.65;;;;;;;26.17;44.12;101025.31;4973341;28;20517;-64
2021/07/15 09:34:29;;;;;;;4.28;1.42;;;;;;;26.18;43.98;101015.38;4973406;28;20057;-64
2021/07/15 09:36:57;;;;;;;5.30;1.73;;;;;;;26.28;43.65;101026.72;4973320;28;20043;-63
2021/07/15 09:39:29;;;;;;;5.35;1.75;;;;;;;26.21;43.95;101021.25;4973170;28;20059;-64
2021/07/15 09:42:18;;;;;;;4.43;1.63;;;;;;;26.04;44.19;101017.88;4973268;28;20444;-63
2021/07/15 09:44:48;;;;;;;4.78;1.80;;;;;;;25.90;44.77;101016.81;4973112;28;20047;-63
2021/07/15 09:47:39;;;;;;;7.00;2.00;;;;;;;25.92;44.65;101016.63;4973154;28;20691;-63
2021/07/15 09:50:15;;;;;;;4.32;1.63;;;;;;;25.82;44.98;101018.72;4972937;28;20130;-63
2021/07/15 09:52:42;;;;;;;5.63;1.70;;;;;;;25.78;44.80;101029.00;4972577;28;20109;-63
2021/07/15 09:55:22;;;;;;;3.45;1.52;;;;;;;25.81;44.89;101028.63;4972721;28;20059;-64
2021/07/15 09:58:07;;;;;;;4.05;1.58;;;;;;;25.73;44.98;101029.53;4972668;28;20108;-64
2021/07/15 10:00:39;;;;;;;2.85;1.40;;;;;;;25.59;45.38;101028.47;4972709;28;20051;-64
2021/07/15 10:03:09;;;;;;;4.35;1.90;;;;;;;25.52;45.50;101035.59;4972865;28;20055;-64
2021/07/15 10:05:38;;;;;;;4.00;1.92;;;;;;;25.45;45.63;101039.16;4972571;28;20050;-64
2021/07/15 10:08:10;;;;;;;4.07;1.25;;;;;;;25.36;45.55;101036.53;4972479;28;20042;-64
2021/07/15 10:10:38;;;;;;;2.88;1.10;;;;;;;25.30;45.51;101037.19;4972610;28;20283;-64
2021/07/15 10:13:25;;;;;;;4.00;1.38;;;;;;;25.26;45.20;101033.19;4971362;28;20097;-64
2021/07/15 10:15:52;;;;;;;4.47;1.10;;;;;;;25.35;45.04;101034.81;4972495;28;20082;-63
2021/07/15 10:18:37;;;;;;;2.90;1.30;;;;;;;25.59;44.40;101033.00;4972546;28;20054;-63
2021/07/15 10:21:08;;;;;;;2.95;1.40;;;;;;;25.77;44.09;101034.56;4972390;28;20059;-63
2021/07/15 10:23:36;;;;;;;5.20;1.92;;;;;;;25.91;44.04;101031.94;4972456;28;20050;-63
2021/07/15 10:26:24;;;;;;;4.50;1.85;;;;;;;26.94;41.55;101025.16;4972023;28;20487;-63
2021/07/15 10:28:51;;;;;;;4.28;1.50;;;;;;;27.68;40.10;101014.16;4972151;28;20082;-64
2021/07/15 10:31:20;;;;;;;6.72;1.58;;;;;;;27.92;39.96;101013.94;4972016;28;20046;-64
2021/07/15 10:33:47;;;;;;;5.47;1.50;;;;;;;28.12;39.72;101012.25;4972331;28;20054;-64
2021/07/15 10:36:14;;;;;;;6.50;1.40;;;;;;;28.32;39.35;101006.16;4972244;28;20082;-64
2021/07/15 10:38:46;;;;;;;4.57;1.30;;;;;;;28.88;38.38;101002.50;4971795;28;20102;-64
2021/07/15 10:41:14;;;;;;;2.92;1.20;;;;;;;29.09;38.17;101000.69;4972013;28;20047;-63
2021/07/15 10:43:41;;;;;;;3.53;1.40;;;;;;;29.35;37.98;101001.84;4971755;28;20047;-64
2021/07/15 10:46:08;;;;;;;3.78;1.38;;;;;;;29.55;37.37;100997.28;4971761;28;20480;-64
2021/07/15 10:48:36;;;;;;;4.10;1.00;;;;;;;29.75;37.07;100989.19;4971728;28;20078;-64
2021/07/15 10:51:05;;;;;;;4.88;2.45;;;;;;;29.87;36.36;100992.09;4971777;28;20492;-64
2021/07/15 10:53:39;;;;;;;3.00;1.40;;;;;;;30.14;35.93;100983.97;4971835;28;20082;-64
2021/07/15 10:56:06;;;;;;;5.43;1.85;;;;;;;30.06;36.25;100982.31;4971574;28;20090;-64
2021/07/15 10:58:50;;;;;;;3.22;1.60;;;;;;;30.40;35.58;100979.53;4971544;28;20105;-64
2021/07/15 11:01:36;;;;;;;6.13;1.75;;;;;;;30.68;35.22;100984.66;4971653;28;20130;-64
2021/07/15 11:04:22;;;;;;;3.75;1.80;;;;;;;30.34;35.51;100977.69;4971475;28;20055;-64
2021/07/15 11:06:50;;;;;;;5.63;1.60;;;;;;;30.32;35.13;100968.94;4971633;28;20484;-64
2021/07/15 11:09:31;;;;;;;5.10;1.85;;;;;;;30.02;36.08;100978.38;4971434;28;20054;-64
2021/07/15 11:12:00;;;;;;;4.55;1.60;;;;;;;29.93;35.60;100972.34;4971443;28;20455;-64
2021/07/15 11:14:32;;;;;;;5.82;1.52;;;;;;;30.05;35.83;100969.81;4971312;28;20051;-64
2021/07/15 11:16:58;;;;;;;5.40;1.60;;;;;;;29.96;36.12;100971.91;4971302;28;20058;-64
2021/07/15 11:19:52;;;;;;;6.40;2.55;;;;;;;29.57;36.24;100973.59;4971245;28;20046;-64
2021/07/15 11:22:45;;;;;;;4.35;1.90;;;;;;;29.90;35.19;100977.34;4971348;28;20051;-64
2021/07/15 11:25:14;;;;;;;2.45;1.45;;;;;;;30.36;34.52;100976.44;4970982;28;20097;-64
2021/07/15 11:27:45;;;;;;;4.82;1.63;;;;;;;30.66;33.90;100972.38;4971027;28;20082;-64
2021/07/15 11:30:54;;;;;;;3.58;1.90;;;;;;;30.88;33.31;100975.59;4971026;28;20047;-64
2021/07/15 11:33:21;;;;;;;3.05;1.60;;;;;;;31.13;33.25;100974.88;4968818;28;20050;-64
2021/07/15 11:36:03;;;;;;;5.47;2.08;;;;;;;31.27;33.43;100980.00;4970636;28;20098;-64
2021/07/15 11:38:33;;;;;;;4.22;1.88;;;;;;;31.50;32.76;100983.97;4970787;28;20046;-64
2021/07/15 11:41:14;;;;;;;3.28;1.63;;;;;;;31.90;32.42;100983.69;4970845;28;20055;-64